Flight Track Log - Related Links

Times and Time Zones

All times are in EDT time to prevent confusion due to time zone crossing. See the BFF202 flight status page for this flight to view local times or setup timezone preferences in your user account.

Time Position Orientation Groundspeed Altitude Reporting Facility
EDT Latitude Longitude Course Direction KTS MPH feet Rate Location/Type
Thu 05:49:18 PM 63.8000 -68.5333 348° North 140 161 600  Level Montreal Center
Thu 05:50:18 PM 63.8333 -68.5500 348° North 170 196 1,900 1,250 Climbing Montreal Center
Thu 05:51:18 PM 63.8833 -68.5000 24° Northeast 180 207 3,100 1,150 Climbing Montreal Center
Thu 05:52:18 PM 63.9167 -68.4667 24° Northeast 170 196 4,200 1,050 Climbing Montreal Center
Thu 05:53:18 PM 63.9667 -68.3667 41° Northeast 180 207 5,200 1,000 Climbing Montreal Center
Thu 05:54:18 PM 63.9833 -68.2833 65° Northeast 180 207 6,200 1,050 Climbing Montreal Center
Thu 05:55:18 PM 64.0333 -68.2333 24° Northeast 190 219 7,300 1,100 Climbing Montreal Center
Thu 05:56:18 PM 64.0833 -68.1833 24° Northeast 190 219 8,400 1,100 Climbing Montreal Center
Thu 05:57:18 PM 64.1333 -68.1000 36° Northeast 190 219 9,500 1,000 Climbing Montreal Center
Thu 05:58:18 PM 64.1833 -68.0500 24° Northeast 200 230 10,400 900 Climbing Montreal Center
Thu 05:59:18 PM 64.2167 -68.0000 33° Northeast 200 230 11,300 700 Climbing Montreal Center
Thu 06:00:18 PM 64.2833 -67.9333 23° Northeast 210 242 11,800 864 Climbing Montreal Center
Thu 06:01:23 PM 64.3333 -67.8833 23° Northeast 220 253 13,100 960 Climbing Montreal Center
Thu 06:02:23 PM 64.4000 -67.7833 33° Northeast 220 253 13,800 700 Climbing Montreal Center
Thu 06:03:23 PM 64.4500 -67.7333 23° Northeast 220 253 14,500 550 Climbing Montreal Center
Thu 06:04:23 PM 64.5167 -67.6833 18° North 220 253 14,900 250 Climbing Montreal Center
Thu 06:05:23 PM 64.5500 -67.6333 33° Northeast 240 276 15,000 42 Climbing Montreal Center
Thu 06:06:46 PM 64.6000 -67.3667 66° East 250 288 15,000  Level Edmonton Center
Thu 06:07:23 PM 64.6833 -67.4667 333° Northwest 250 288 15,000  Level Montreal Center
Thu 06:08:23 PM 64.7667 -67.4000 19° North 250 288 15,000 50 Level Montreal Center
Thu 06:09:23 PM 64.8167 -67.3167 35° Northeast 250 288 15,100  Climbing Montreal Center
Thu 06:10:23 PM 64.8667 -67.2500 30° Northeast 250 288 15,000 -50 Descending Montreal Center
Thu 06:11:23 PM 64.9500 -67.1833 19° North 260 299 15,000  Level Montreal Center
Thu 06:12:23 PM 65.0167 -67.0833 32° Northeast 260 299 15,000 50 Level Montreal Center
Thu 06:13:23 PM 65.0667 -67.0333 23° Northeast 260 299 15,100 50 Climbing Montreal Center
Thu 06:14:23 PM 65.1333 -66.9833 18° North 250 288 15,100  Level Montreal Center
Thu 06:16:00 PM 65.1962 -66.8891 32° Northeast  Level FlightAware Approximate
Thu 06:23:00 PM 65.5726 -66.4299 27° Northeast  Level FlightAware Approximate
Thu 06:24:00 PM 65.6260 -66.3627 28° Northeast  Level FlightAware Approximate
Thu 06:25:00 PM 65.6793 -66.2950 28° Northeast  Level FlightAware Approximate
Thu 06:26:00 PM 65.7327 -66.2269 28° Northeast  Level FlightAware Approximate
Thu 06:27:00 PM 65.7858 -66.1580 29° Northeast  Level FlightAware Approximate
Thu 06:28:00 PM 65.8387 -66.0876 29° Northeast  Level FlightAware Approximate
Thu 06:29:00 PM 65.8915 -66.0170 29° Northeast  Level FlightAware Approximate
Thu 06:30:00 PM 65.9459 -65.9541 22° Northeast  Level FlightAware Approximate
Thu 06:31:00 PM 66.0015 -65.8977 31° Northeast  Level FlightAware Approximate
Thu 06:32:00 PM 66.0530 -65.8206 31° Northeast  Level FlightAware Approximate
Thu 06:33:00 PM 66.1044 -65.7435 31° Northeast  Level FlightAware Approximate
Thu 06:34:00 PM 66.1333 -65.7000 31° Northeast  Level FlightAware Approximate
Thu 06:35:00 PM 66.1450 -65.7136 31° Northeast  Level Estimated
Thu 06:36:00 PM 66.1450 -65.7136 31° Northeast  Level Estimated
Thu 06:37:00 PM 66.1450 -65.7136 31° Northeast  Level Estimated
Thu 06:38:00 PM 66.1450 -65.7136 31° Northeast  Level Estimated
Thu 06:39:00 PM 66.1450 -65.7136 31° Northeast  Level Estimated
Thu 06:40:00 PM 66.1450 -65.7136 31° Northeast  Level Estimated
Thu 06:41:00 PM 66.1450 -65.7136 31° Northeast  Level Estimated
Thu 06:42:00 PM 66.1450 -65.7136 31° Northeast  Level Estimated
Thu 06:43:00 PM 66.1450 -65.7136 31° Northeast  Level Estimated
Thu 06:44:00 PM 66.1450 -65.7136 31° Northeast  Level Estimated
Thu 06:45:00 PM 66.1450 -65.7136 31° Northeast  Level Estimated
Thu 06:46:00 PM 66.1450 -65.7136 31° Northeast  Level Estimated
Thu 06:47:00 PM 66.1450 -65.7136 31° Northeast  Level Estimated
Thu 06:48:00 PM 66.1450 -65.7136 31° Northeast  Level Estimated
Thu 06:49:00 PM 66.1450 -65.7136 31° Northeast  Level Estimated

Login

Don't have an account? Register now (free) for customized features, flight alerts, and more!